world map with LCG marked

LCG - Airport

This information may not be accurate or current and is not valid for navigation or flight planning. No warranty of fitness for any purpose is made or implied.

flag of Galiciaflag of Spain

Donate via PayPal

Additional information is available on the NEW Great Circle Mapper

Location
City:  A Coruņa, Galicia, Spain
Name:A Coruņa Airport (Alvedro Airport)
ICAO / IATA:LECO / LCG

Details
Type:Airport (Aerodrome, Airfield)
Use:Public/Civil
Latitude:43°18'07"N (43.302061)
Longitude:8°22'38"W (-8.377255)
Datum:WGS 1984
Elevation:326 ft (99 m)
Runways:1
Longest:6365 × 148 ft (1940 × 45 m)

Time
Timezone:UTC+1 (DST+4)
Local Time:

Weather
METAR:LECO  242300Z 10005KT 060V120 CAVOK 15/09 Q1026 NOSIG
TAF:LECO  242000Z 2421/2521 05009KT CAVOK TX24/2514Z TN12/2505Z

Related Locations
Nearby:
Farthest:NZPH: 12436 mi / 20014 km
Pudding Hill, CAN, NZ

Find:

   beyond  
but within

Other Information
Maps:
Sources:

  


 


Great Circle Mapper   Great Circle Mapper
Great Circle Mapper FAQ   Great Circle Mapper FAQ
  Karl's Home Page
KLSē   KLSē Home
   GC on Facebook
Airlines of the World   Airlines of the World
Donate via PayPal


Copyright © 2004-2018, Karl L. Swartz. All rights reserved.
All trademarks mentioned herein belong to their respective owners.

Please see credits for attribution and copyright information.

Karl Swartz <karl@kls2.com>
  Powered by FreeBSD
Valid HTML 4.01!
Labeled with ICRA
hCard Microformat
Geo Microformat